Time;durP1;ratioP1;P1;durP2;ratioP2;P2;SDS_P1;SDS_P2;PMS_P1;PMS_P2;Temp;Humidity;BMP_temperature;BMP_pressure;BME280_temperature;BME280_humidity;BME280_pressure;Samples;Min_cycle;Max_cycle;Signal;HPM_P1;HPM_P2
2022/05/27 00:02:40;;;;;;;4.35;4.00;;;19.80;66.10;;;;;;10415420;28;20041;-60
2022/05/27 00:07:40;;;;;;;4.40;4.00;;;19.80;66.10;;;;;;10414791;28;20458;-60
2022/05/27 00:12:42;;;;;;;3.40;3.10;;;19.80;66.20;;;;;;10412618;28;20045;-60
2022/05/27 00:17:42;;;;;;;3.63;3.10;;;19.80;66.10;;;;;;10414341;28;20465;-61
2022/05/27 00:22:43;;;;;;;3.45;3.17;;;19.80;66.00;;;;;;10413677;28;20126;-60
2022/05/27 00:27:44;;;;;;;3.95;3.55;;;19.70;65.90;;;;;;10414021;28;20072;-60
2022/05/27 00:32:45;;;;;;;3.63;3.33;;;19.80;66.10;;;;;;10413810;28;20045;-60
2022/05/27 00:37:46;;;;;;;3.50;3.20;;;19.70;65.90;;;;;;10413318;28;20041;-60
2022/05/27 00:42:47;;;;;;;3.35;3.05;;;19.70;66.00;;;;;;10413501;28;20477;-60
2022/05/27 00:47:53;;;;;;;4.20;3.80;;;19.70;66.00;;;;;;10413458;28;20036;-60
2022/05/27 00:52:55;;;;;;;4.38;3.30;;;19.70;66.00;;;;;;10411895;28;20036;-60
2022/05/27 00:58:02;;;;;;;3.45;3.15;;;19.70;66.00;;;;;;10413181;28;20042;-60
2022/05/27 01:03:04;;;;;;;3.60;3.30;;;19.70;66.00;;;;;;10412102;28;20508;-60
2022/05/27 01:08:08;;;;;;;3.53;3.22;;;19.70;66.00;;;;;;10411900;28;20042;-60
2022/05/27 01:13:39;;;;;;;2.85;2.55;;;19.70;66.00;;;;;;10427583;28;20116;-61
2022/05/27 01:25:21;;;;;;;2.28;1.95;;;19.70;66.00;;;;;;10415159;28;20060;-60
2022/05/27 01:30:51;;;;;;;3.72;3.20;;;19.70;66.10;;;;;;10420794;28;20440;-60
2022/05/27 01:36:28;;;;;;;3.03;2.72;;;19.70;66.10;;;;;;10400866;28;20045;-60
2022/05/27 01:41:47;;;;;;;3.47;3.00;;;19.70;66.70;;;;;;10420735;28;20033;-60
2022/05/27 01:46:49;;;;;;;3.38;3.08;;;19.70;66.10;;;;;;10427017;28;20046;-60
2022/05/27 01:52:04;;;;;;;3.33;3.10;;;19.70;66.10;;;;;;10419824;28;20036;-61
2022/05/27 01:57:19;;;;;;;3.13;2.92;;;19.70;66.10;;;;;;10419900;28;20029;-60
2022/05/27 02:02:25;;;;;;;2.60;2.40;;;19.70;66.10;;;;;;10418644;28;20374;-60
2022/05/27 02:07:59;;;;;;;2.92;2.58;;;19.70;66.10;;;;;;10417938;28;20115;-60
2022/05/27 02:13:40;;;;;;;3.00;2.70;;;19.70;66.10;;;;;;10418372;28;20064;-60
2022/05/27 02:19:11;;;;;;;2.70;2.50;;;19.60;66.10;;;;;;10418065;28;20493;-60
2022/05/27 02:24:37;;;;;;;3.55;3.00;;;19.70;66.10;;;;;;10418753;28;20478;-60
2022/05/27 02:29:41;;;;;;;2.67;2.47;;;19.60;66.10;;;;;;10404045;28;20505;-60
2022/05/27 02:35:08;;;;;;;3.03;2.53;;;19.70;66.10;;;;;;10433261;28;20091;-58
2022/05/27 02:40:19;;;;;;;2.97;2.75;;;19.60;66.10;;;;;;10417417;28;20025;-58
2022/05/27 02:45:46;;;;;;;2.47;2.22;;;19.60;66.10;;;;;;10417910;28;20030;-58
2022/05/27 02:51:09;;;;;;;2.53;2.33;;;19.60;66.10;;;;;;10417640;28;20099;-58
2022/05/27 02:56:27;;;;;;;3.00;2.75;;;19.60;66.10;;;;;;10432616;28;20028;-58
2022/05/27 03:01:28;;;;;;;2.40;2.20;;;19.60;66.10;;;;;;10417530;28;20041;-58
2022/05/27 03:07:04;;;;;;;3.08;2.60;;;19.60;66.10;;;;;;10417505;28;20037;-58
2022/05/27 03:12:23;;;;;;;2.97;2.67;;;19.60;66.10;;;;;;10417068;28;20351;-58
2022/05/27 03:18:00;;;;;;;2.80;2.60;;;19.60;66.10;;;;;;10418264;28;20037;-58
2022/05/27 03:23:54;;;;;;;3.10;2.85;;;19.60;66.00;;;;;;10430280;28;20486;-58
2022/05/27 03:29:21;;;;;;;2.58;2.38;;;19.60;66.10;;;;;;10409295;28;20524;-58
2022/05/27 03:34:56;;;;;;;3.33;2.40;;;19.60;66.10;;;;;;10414800;28;20143;-58
2022/05/27 03:40:23;;;;;;;3.28;2.60;;;19.60;66.10;;;;;;10414612;28;20070;-59
2022/05/27 03:45:24;;;;;;;3.25;2.78;;;19.60;66.10;;;;;;10398238;28;20052;-57
2022/05/27 03:50:27;;;;;;;2.58;2.38;;;19.60;66.10;;;;;;10413876;28;20029;-59
2022/05/27 03:55:27;;;;;;;2.60;2.35;;;19.60;66.10;;;;;;10412090;28;20032;-58
2022/05/27 04:00:28;;;;;;;2.40;2.20;;;19.50;66.00;;;;;;10412784;28;20029;-58
2022/05/27 04:05:29;;;;;;;2.90;2.20;;;19.50;66.00;;;;;;10414363;28;20473;-58
2022/05/27 04:10:30;;;;;;;2.97;2.67;;;19.60;66.00;;;;;;10421971;28;20053;-57
2022/05/27 04:15:30;;;;;;;2.30;2.00;;;19.50;66.00;;;;;;10413655;28;20026;-58
2022/05/27 04:20:31;;;;;;;2.65;2.25;;;19.50;66.00;;;;;;10412685;28;20044;-58
2022/05/27 04:25:31;;;;;;;2.60;2.03;;;19.50;66.00;;;;;;10413487;28;20105;-58
2022/05/27 04:30:32;;;;;;;2.22;2.03;;;19.50;66.60;;;;;;10411637;28;20163;-57
2022/05/27 04:35:33;;;;;;;2.28;2.08;;;19.60;66.10;;;;;;10418899;28;20037;-57
2022/05/27 04:40:34;;;;;;;2.85;1.95;;;19.50;66.00;;;;;;10413199;28;20108;-58
2022/05/27 04:45:34;;;;;;;2.10;1.90;;;19.50;66.00;;;;;;10420624;28;20033;-58
2022/05/27 04:50:35;;;;;;;2.15;1.73;;;19.50;66.00;;;;;;10412252;28;20482;-58
2022/05/27 04:55:38;;;;;;;2.58;2.38;;;19.50;65.90;;;;;;10412501;28;20024;-57
2022/05/27 05:00:46;;;;;;;3.03;2.15;;;19.50;66.00;;;;;;10413597;28;20041;-58
2022/05/27 05:05:47;;;;;;;2.50;2.30;;;19.50;66.00;;;;;;10404395;28;20042;-58
2022/05/27 05:10:48;;;;;;;1.98;1.80;;;19.50;66.00;;;;;;10403275;28;20116;-58
2022/05/27 05:15:48;;;;;;;2.03;1.83;;;19.50;65.90;;;;;;10412232;28;20078;-57
2022/05/27 05:20:49;;;;;;;2.40;2.20;;;19.50;65.90;;;;;;10396657;28;20068;-57
2022/05/27 05:25:50;;;;;;;3.10;2.75;;;19.50;65.90;;;;;;10411662;28;20064;-58
2022/05/27 05:30:50;;;;;;;2.38;2.15;;;19.50;65.90;;;;;;10411286;28;20504;-57
2022/05/27 05:35:51;;;;;;;4.05;2.35;;;19.50;65.90;;;;;;10411502;28;20049;-58
2022/05/27 05:40:52;;;;;;;5.13;2.90;;;19.50;66.20;;;;;;10411641;28;20064;-58
2022/05/27 05:45:53;;;;;;;3.65;2.03;;;19.50;66.80;;;;;;10410123;28;20038;-58
2022/05/27 05:50:53;;;;;;;3.80;2.70;;;19.50;66.50;;;;;;10410632;28;20116;-59
2022/05/27 05:55:54;;;;;;;2.75;2.00;;;19.50;66.50;;;;;;10412178;28;20108;-59
2022/05/27 06:00:54;;;;;;;4.30;2.53;;;19.50;67.00;;;;;;10407782;28;20164;-58
2022/05/27 06:05:55;;;;;;;3.78;2.25;;;19.50;66.40;;;;;;10426856;28;20048;-57
2022/05/27 06:10:56;;;;;;;3.40;2.53;;;19.50;66.40;;;;;;10412110;28;20116;-57
2022/05/27 06:15:57;;;;;;;2.45;2.17;;;19.50;66.30;;;;;;10419066;28;20068;-57
2022/05/27 06:20:58;;;;;;;2.67;1.90;;;19.50;66.40;;;;;;10402652;28;20099;-57
2022/05/27 06:26:07;;;;;;;3.40;1.98;;;19.50;66.40;;;;;;10419944;28;20492;-57
2022/05/27 06:36:28;;;;;;;2.55;1.80;;;19.50;66.40;;;;;;10408761;28;20050;-59
2022/05/27 06:41:28;;;;;;;2.95;2.05;;;19.50;66.30;;;;;;10431755;28;20120;-58
2022/05/27 06:46:30;;;;;;;3.15;2.05;;;19.50;66.30;;;;;;10417030;28;20122;-58
2022/05/27 06:51:34;;;;;;;6.80;2.15;;;19.50;66.30;;;;;;10412954;28;20075;-58
2022/05/27 06:56:41;;;;;;;6.90;2.50;;;19.50;67.20;;;;;;10414915;28;20036;-58
2022/05/27 07:01:43;;;;;;;3.88;2.08;;;19.50;68.00;;;;;;10415142;28;20107;-59
2022/05/27 07:06:46;;;;;;;4.63;2.22;;;19.60;67.90;;;;;;10418413;28;20057;-59
2022/05/27 07:11:51;;;;;;;3.90;2.13;;;19.60;67.90;;;;;;10422250;28;20505;-58
2022/05/27 07:16:52;;;;;;;3.75;1.92;;;19.60;67.90;;;;;;10416831;28;20029;-59
2022/05/27 07:21:55;;;;;;;7.43;2.53;;;19.60;67.10;;;;;;10417134;28;20053;-58
2022/05/27 07:26:56;;;;;;;4.57;2.08;;;19.60;67.20;;;;;;10416484;28;20024;-58
2022/05/27 07:31:57;;;;;;;4.90;2.13;;;19.60;67.10;;;;;;10430980;28;20043;-58
2022/05/27 07:36:58;;;;;;;3.72;2.28;;;19.60;66.90;;;;;;10415846;28;20053;-59
2022/05/27 07:41:58;;;;;;;4.85;2.53;;;19.60;66.80;;;;;;10415562;28;20350;-57
2022/05/27 07:46:59;;;;;;;9.57;2.88;;;19.60;66.60;;;;;;10409002;28;20060;-59
2022/05/27 07:52:02;;;;;;;16.92;4.15;;;19.60;66.60;;;;;;10404591;28;20109;-58
2022/05/27 07:57:23;;;;;;;5.63;2.30;;;19.60;66.60;;;;;;10395419;28;20116;-58
2022/05/27 08:02:25;;;;;;;5.70;2.05;;;19.60;66.50;;;;;;10399826;28;20036;-57
2022/05/27 08:07:26;;;;;;;10.05;2.70;;;19.60;66.30;;;;;;10412628;28;20038;-58
2022/05/27 08:12:27;;;;;;;10.85;3.75;;;19.60;66.20;;;;;;10412012;28;20033;-56
2022/05/27 08:17:28;;;;;;;6.53;2.47;;;19.60;66.10;;;;;;10413909;28;20378;-58
2022/05/27 08:22:28;;;;;;;10.13;3.88;;;19.60;66.00;;;;;;10412611;28;20512;-57
2022/05/27 08:27:29;;;;;;;4.82;2.38;;;19.60;65.90;;;;;;10422992;28;20022;-57
2022/05/27 08:32:31;;;;;;;9.43;2.88;;;19.60;65.50;;;;;;10429393;28;20029;-57
2022/05/27 08:43:19;;;;;;;7.55;3.30;;;19.60;65.30;;;;;;10414319;28;20041;-58
2022/05/27 08:48:24;;;;;;;8.70;2.63;;;19.70;65.20;;;;;;10399505;28;20038;-57
2022/05/27 08:53:41;;;;;;;6.75;2.63;;;19.60;64.90;;;;;;10405423;28;20466;-58
2022/05/27 08:59:26;;;;;;;7.05;3.22;;;19.70;64.70;;;;;;10410964;28;20083;-55
2022/05/27 09:04:59;;;;;;;9.52;2.78;;;19.70;64.30;;;;;;10411933;28;20493;-56
2022/05/27 09:10:06;;;;;;;8.05;2.85;;;19.70;64.10;;;;;;10407156;28;20033;-57
2022/05/27 09:15:33;;;;;;;6.82;2.63;;;19.70;64.00;;;;;;10404280;28;20068;-56
2022/05/27 09:20:45;;;;;;;4.40;2.58;;;19.70;64.00;;;;;;10410710;28;20033;-56
2022/05/27 09:26:15;;;;;;;5.72;2.58;;;19.70;64.00;;;;;;10413537;28;20032;-55
2022/05/27 09:31:44;;;;;;;6.90;2.65;;;19.70;64.00;;;;;;10391067;28;20144;-57
2022/05/27 09:36:51;;;;;;;8.88;3.20;;;19.70;64.10;;;;;;10412071;28;20041;-56
2022/05/27 09:42:25;;;;;;;5.30;2.38;;;19.70;64.30;;;;;;10411079;28;20034;-56
2022/05/27 09:47:31;;;;;;;11.80;3.22;;;19.70;64.40;;;;;;10416273;28;20034;-56
2022/05/27 09:52:39;;;;;;;4.85;2.00;;;19.70;64.40;;;;;;10430501;28;20032;-56
2022/05/27 09:58:03;;;;;;;8.50;2.47;;;19.70;64.40;;;;;;10418266;28;20144;-55
2022/05/27 10:03:26;;;;;;;8.82;2.50;;;19.70;64.10;;;;;;10418204;28;20056;-55
2022/05/27 10:08:38;;;;;;;5.75;2.45;;;19.70;63.80;;;;;;10413086;28;20038;-54
2022/05/27 10:13:41;;;;;;;5.15;2.92;;;19.70;63.70;;;;;;10416691;28;20029;-55
2022/05/27 10:18:44;;;;;;;8.07;2.50;;;19.70;63.50;;;;;;10410173;28;20462;-54
2022/05/27 10:23:49;;;;;;;10.35;3.28;;;19.80;63.40;;;;;;10419992;28;20033;-55
2022/05/27 10:29:14;;;;;;;7.13;2.80;;;19.80;63.20;;;;;;10416761;28;20029;-57
2022/05/27 10:34:46;;;;;;;11.23;2.45;;;19.80;63.20;;;;;;10417141;28;20072;-55
2022/05/27 10:40:32;;;;;;;9.13;3.40;;;19.80;62.70;;;;;;10416961;28;20120;-55
2022/05/27 10:45:42;;;;;;;10.85;3.33;;;19.80;62.60;;;;;;10415134;28;20037;-57
2022/05/27 10:51:15;;;;;;;10.05;4.82;;;19.80;62.70;;;;;;10417142;28;20030;-55
2022/05/27 10:56:18;;;;;;;8.63;2.90;;;19.80;62.80;;;;;;10413374;28;20120;-56
2022/05/27 11:02:07;;;;;;;8.93;3.65;;;19.80;62.90;;;;;;10416986;28;20394;-58
2022/05/27 11:07:53;;;;;;;11.38;3.80;;;19.80;62.80;;;;;;10414983;28;20045;-55
2022/05/27 11:19:00;;;;;;;10.77;3.33;;;19.90;62.40;;;;;;10414821;28;20038;-56
2022/05/27 11:24:25;;;;;;;6.93;3.78;;;19.90;62.30;;;;;;10416168;28;20480;-56
2022/05/27 11:29:53;;;;;;;7.80;3.45;;;19.90;62.20;;;;;;10413988;28;20156;-56
2022/05/27 11:35:20;;;;;;;5.43;3.17;;;19.90;62.40;;;;;;10415740;28;20120;-56
2022/05/27 11:40:41;;;;;;;6.75;2.85;;;19.90;62.40;;;;;;10409597;28;20034;-56
2022/05/27 11:46:26;;;;;;;7.90;2.85;;;19.90;62.20;;;;;;10415583;28;20492;-56
2022/05/27 11:51:39;;;;;;;5.18;2.72;;;19.90;62.30;;;;;;10428266;28;20060;-56
2022/05/27 11:57:19;;;;;;;5.40;3.50;;;19.80;62.30;;;;;;10414733;28;20036;-56
2022/05/27 12:02:34;;;;;;;4.43;2.80;;;19.90;62.30;;;;;;10414699;28;20034;-56
2022/05/27 12:07:41;;;;;;;11.38;3.40;;;19.90;62.40;;;;;;10413737;28;20088;-55
2022/05/27 12:12:55;;;;;;;6.35;3.28;;;19.90;62.40;;;;;;10413912;28;20080;-55
2022/05/27 12:17:57;;;;;;;7.25;3.40;;;19.90;62.60;;;;;;10428577;28;20037;-56
2022/05/27 12:23:05;;;;;;;10.48;3.67;;;19.90;62.50;;;;;;10413724;28;20025;-56
2022/05/27 12:28:07;;;;;;;7.07;2.72;;;19.90;62.60;;;;;;10413635;28;20080;-56
2022/05/27 12:33:20;;;;;;;5.88;2.70;;;20.00;62.40;;;;;;10413002;28;20095;-56
2022/05/27 12:38:33;;;;;;;7.05;3.13;;;20.00;62.20;;;;;;10412278;28;20047;-56
2022/05/27 12:43:53;;;;;;;5.25;3.08;;;20.00;62.20;;;;;;10411686;28;20041;-56
2022/05/27 12:48:56;;;;;;;5.30;2.13;;;20.00;62.10;;;;;;10426017;28;20561;-56
2022/05/27 12:53:59;;;;;;;7.55;3.10;;;20.00;62.30;;;;;;10411382;28;20029;-57
2022/05/27 13:04:56;;;;;;;5.57;2.85;;;20.00;62.10;;;;;;10411936;28;20042;-56
2022/05/27 13:10:17;;;;;;;6.32;2.65;;;20.00;62.10;;;;;;10396657;28;20569;-56
2022/05/27 13:15:22;;;;;;;4.63;2.63;;;20.00;61.90;;;;;;10427266;28;20025;-57
2022/05/27 13:20:39;;;;;;;6.95;2.92;;;20.00;62.00;;;;;;10412506;28;20041;-56
2022/05/27 13:25:47;;;;;;;5.63;2.90;;;20.00;61.80;;;;;;10407515;28;20048;-56
2022/05/27 13:31:03;;;;;;;4.57;2.88;;;20.00;61.90;;;;;;10418635;28;20072;-55
2022/05/27 13:36:25;;;;;;;6.80;3.00;;;20.00;61.90;;;;;;10434569;28;20474;-55
2022/05/27 13:41:37;;;;;;;4.68;2.40;;;20.00;61.90;;;;;;10432272;28;20041;-57
2022/05/27 13:46:44;;;;;;;5.65;3.05;;;20.00;62.00;;;;;;10434649;28;20513;-56
2022/05/27 13:51:45;;;;;;;5.90;2.90;;;20.00;61.90;;;;;;10432106;28;20065;-55
2022/05/27 13:57:00;;;;;;;5.63;2.33;;;20.00;61.90;;;;;;10417833;28;20029;-56
2022/05/27 14:02:05;;;;;;;6.85;2.90;;;20.00;61.70;;;;;;10418771;28;20034;-56
2022/05/27 14:07:21;;;;;;;4.35;2.22;;;19.90;62.00;;;;;;10433357;28;20033;-56
2022/05/27 14:12:22;;;;;;;4.35;2.35;;;19.90;61.80;;;;;;10417529;28;20029;-56
2022/05/27 14:17:23;;;;;;;4.60;2.13;;;20.00;61.80;;;;;;10418363;28;20505;-57
2022/05/27 14:22:39;;;;;;;4.90;2.25;;;19.90;61.80;;;;;;10414526;28;20087;-57
2022/05/27 14:28:18;;;;;;;7.05;2.72;;;19.90;61.90;;;;;;10417646;28;20029;-56
2022/05/27 14:33:37;;;;;;;4.45;2.63;;;19.90;61.90;;;;;;10417358;28;20367;-56
2022/05/27 14:38:40;;;;;;;5.13;2.13;;;19.90;62.00;;;;;;10418526;28;20069;-56
2022/05/27 14:43:44;;;;;;;7.75;2.88;;;19.90;62.10;;;;;;10402432;28;20379;-58
2022/05/27 14:48:47;;;;;;;4.57;2.25;;;19.90;62.10;;;;;;10416882;28;20044;-56
2022/05/27 14:53:50;;;;;;;4.30;2.33;;;19.90;62.10;;;;;;10416931;28;20033;-56
2022/05/27 14:58:55;;;;;;;3.28;1.95;;;19.90;62.20;;;;;;10415392;28;20045;-57
2022/05/27 15:04:16;;;;;;;6.70;2.53;;;19.90;62.20;;;;;;10431505;28;20438;-56
2022/05/27 15:09:35;;;;;;;4.55;2.78;;;19.90;62.10;;;;;;10416250;28;20515;-56
2022/05/27 15:14:42;;;;;;;;;;;19.80;62.10;;;;;;10416745;28;20060;-56
2022/05/27 15:19:50;;;;;;;3.83;2.22;;;19.80;62.20;;;;;;10413009;28;19913;-57
2022/05/27 15:25:06;;;;;;;5.75;2.30;;;19.80;62.20;;;;;;10418556;28;20104;-56
2022/05/27 15:35:49;;;;;;;5.22;2.30;;;19.80;62.20;;;;;;10414554;28;20045;-56
2022/05/27 15:40:50;;;;;;;5.90;2.35;;;19.80;62.30;;;;;;10413824;28;20040;-56
2022/05/27 15:45:51;;;;;;;4.22;2.03;;;19.80;62.20;;;;;;10414058;28;20488;-57
2022/05/27 15:50:52;;;;;;;4.95;1.95;;;19.80;62.20;;;;;;10405168;28;20087;-56
2022/05/27 15:55:53;;;;;;;7.70;2.15;;;19.80;62.20;;;;;;10414804;28;20021;-56
2022/05/27 16:00:54;;;;;;;5.88;3.03;;;19.80;62.30;;;;;;10414461;28;20037;-56
2022/05/27 16:05:55;;;;;;;4.18;1.75;;;19.80;62.20;;;;;;10413009;28;20405;-56
2022/05/27 16:10:58;;;;;;;4.00;2.05;;;19.80;62.20;;;;;;10415531;28;20095;-57
2022/05/27 16:21:17;;;;;;;4.03;2.03;;;19.80;63.00;;;;;;10413370;28;20820;-59
2022/05/27 16:26:19;;;;;;;3.38;1.58;;;19.80;62.80;;;;;;10412884;28;20037;-58
2022/05/27 16:31:22;;;;;;;4.13;1.83;;;19.80;62.20;;;;;;10411703;28;20474;-57
2022/05/27 16:36:23;;;;;;;3.72;1.67;;;19.80;62.10;;;;;;10427861;28;20048;-57
2022/05/27 16:41:24;;;;;;;3.15;1.63;;;19.80;62.00;;;;;;10412608;28;20108;-57
2022/05/27 16:46:26;;;;;;;3.95;1.95;;;19.80;62.00;;;;;;10428034;28;20033;-57
2022/05/27 16:51:26;;;;;;;6.57;2.03;;;19.70;62.00;;;;;;10412415;28;20025;-57
2022/05/27 16:56:27;;;;;;;4.88;2.25;;;19.70;62.00;;;;;;10411847;28;20026;-57
2022/05/27 17:01:28;;;;;;;3.88;1.90;;;19.70;62.10;;;;;;10412306;28;20033;-57
2022/05/27 17:06:29;;;;;;;6.00;1.50;;;19.70;62.10;;;;;;10411909;28;20049;-57
2022/05/27 17:11:30;;;;;;;4.50;1.60;;;19.70;62.10;;;;;;10411804;28;20535;-56
2022/05/27 17:16:31;;;;;;;3.55;1.67;;;19.70;62.10;;;;;;10412104;28;20029;-56
2022/05/27 17:21:32;;;;;;;2.42;1.63;;;19.70;62.00;;;;;;10410258;28;20162;-57
2022/05/27 17:26:32;;;;;;;6.45;1.75;;;19.70;62.00;;;;;;10411273;28;20495;-57
2022/05/27 17:31:33;;;;;;;3.33;1.15;;;19.70;62.20;;;;;;10427020;28;20088;-58
2022/05/27 17:36:35;;;;;;;3.38;1.40;;;19.70;62.10;;;;;;10426231;28;20041;-58
2022/05/27 17:41:36;;;;;;;2.10;1.40;;;19.70;62.10;;;;;;10426686;28;20556;-56
2022/05/27 17:51:58;;;;;;;3.25;1.90;;;19.70;62.20;;;;;;10410862;28;20045;-57
2022/05/27 17:57:00;;;;;;;5.25;1.67;;;19.70;62.10;;;;;;10394088;28;20029;-57
2022/05/27 18:02:01;;;;;;;6.30;1.60;;;19.70;62.80;;;;;;10410900;28;20498;-57
2022/05/27 18:07:02;;;;;;;4.57;1.67;;;19.70;62.20;;;;;;10412868;28;20072;-57
2022/05/27 18:12:03;;;;;;;3.22;1.40;;;19.70;62.80;;;;;;10417269;28;20033;-58
2022/05/27 18:17:05;;;;;;;4.25;1.27;;;19.70;62.20;;;;;;10418347;28;20092;-56
2022/05/27 18:22:05;;;;;;;2.97;1.50;;;19.70;62.10;;;;;;10416669;28;20025;-57
2022/05/27 18:27:06;;;;;;;3.53;1.33;;;19.70;62.10;;;;;;10416599;28;20072;-57
2022/05/27 18:32:07;;;;;;;2.45;1.40;;;19.70;62.20;;;;;;10400101;28;20065;-57
2022/05/27 18:37:08;;;;;;;2.33;1.08;;;19.70;62.30;;;;;;10417108;28;20076;-56
2022/05/27 18:42:09;;;;;;;2.60;1.33;;;19.70;62.20;;;;;;10416141;28;20422;-56
2022/05/27 18:47:09;;;;;;;2.35;1.17;;;19.70;62.20;;;;;;10417113;28;20040;-57
2022/05/27 18:52:10;;;;;;;2.88;1.38;;;19.70;62.30;;;;;;10417100;28;20108;-57
2022/05/27 18:57:11;;;;;;;3.50;1.67;;;19.70;62.30;;;;;;10417277;28;20061;-57
2022/05/27 19:02:12;;;;;;;2.63;1.55;;;19.70;62.30;;;;;;10416661;28;20032;-58
2022/05/27 19:07:13;;;;;;;2.63;1.67;;;19.70;62.10;;;;;;10415875;28;20033;-56
2022/05/27 19:12:13;;;;;;;1.85;1.00;;;19.70;62.00;;;;;;10416265;28;20036;-56
2022/05/27 19:17:17;;;;;;;3.28;1.60;;;19.70;62.20;;;;;;10415379;28;20108;-57
2022/05/27 19:22:18;;;;;;;2.92;1.33;;;19.70;62.30;;;;;;10414053;28;20025;-56
2022/05/27 19:27:18;;;;;;;2.67;1.63;;;19.70;62.10;;;;;;10415480;28;20041;-56
2022/05/27 19:32:20;;;;;;;2.13;1.10;;;19.70;62.10;;;;;;10415194;28;20128;-57
2022/05/27 19:37:25;;;;;;;3.80;1.45;;;19.70;62.10;;;;;;10415280;28;20390;-57
2022/05/27 19:42:26;;;;;;;2.92;1.02;;;19.70;62.20;;;;;;10414900;28;20033;-56
2022/05/27 19:47:27;;;;;;;3.10;1.02;;;19.70;62.20;;;;;;10415003;28;20021;-57
2022/05/27 19:52:28;;;;;;;1.80;0.88;;;19.70;62.00;;;;;;10415119;28;20029;-57
2022/05/27 20:08:07;;;;;;;3.35;1.15;;;19.70;62.00;;;;;;10413245;28;20442;-57
2022/05/27 20:13:07;;;;;;;2.17;0.82;;;19.70;62.00;;;;;;10414367;28;20116;-57
2022/05/27 20:18:08;;;;;;;3.20;1.20;;;19.70;62.00;;;;;;10410563;28;20065;-57
2022/05/27 20:23:09;;;;;;;4.78;1.58;;;19.70;62.10;;;;;;10414469;28;20103;-56
2022/05/27 20:28:10;;;;;;;3.15;1.42;;;19.70;62.00;;;;;;10412080;28;20501;-57
2022/05/27 20:33:11;;;;;;;2.80;1.00;;;19.70;61.90;;;;;;10411834;28;20427;-57
2022/05/27 20:38:12;;;;;;;2.65;1.10;;;19.70;61.90;;;;;;10411582;28;20037;-57
2022/05/27 20:43:13;;;;;;;1.15;0.82;;;19.70;61.90;;;;;;10410427;28;20493;-56
2022/05/27 20:48:13;;;;;;;2.42;0.93;;;19.70;61.90;;;;;;10411688;28;20039;-57
2022/05/27 20:53:14;;;;;;;3.25;1.35;;;19.60;61.90;;;;;;10426920;28;20068;-56
2022/05/27 20:58:15;;;;;;;3.17;1.40;;;19.70;61.90;;;;;;10411668;28;20377;-57
2022/05/27 21:03:16;;;;;;;2.83;1.27;;;19.70;61.90;;;;;;10427144;28;20490;-56
2022/05/27 21:13:35;;;;;;;3.15;0.88;;;19.70;61.90;;;;;;10411055;28;20037;-56
2022/05/27 21:18:36;;;;;;;3.38;1.05;;;19.60;61.80;;;;;;10408195;28;20497;-56
2022/05/27 21:23:37;;;;;;;1.77;0.63;;;19.60;61.80;;;;;;10412773;28;20069;-56
2022/05/27 21:28:38;;;;;;;1.75;0.95;;;19.60;61.90;;;;;;10410832;28;20061;-57
2022/05/27 21:33:38;;;;;;;3.17;1.00;;;19.60;61.90;;;;;;10410670;28;20060;-56
2022/05/27 21:38:43;;;;;;;2.08;1.00;;;19.60;61.90;;;;;;10410556;28;20040;-56
2022/05/27 21:43:44;;;;;;;1.45;0.85;;;19.60;61.90;;;;;;10415552;28;20030;-56
2022/05/27 21:48:48;;;;;;;3.70;1.30;;;19.60;61.90;;;;;;10418961;28;20037;-57
2022/05/27 21:53:49;;;;;;;2.65;1.60;;;19.60;61.90;;;;;;10416884;28;20402;-57
2022/05/27 21:58:50;;;;;;;2.30;1.25;;;19.60;61.90;;;;;;10433836;28;20104;-57
2022/05/27 22:03:53;;;;;;;1.73;0.95;;;19.60;61.90;;;;;;10417714;28;20041;-56
2022/05/27 22:08:53;;;;;;;3.33;1.00;;;19.60;61.90;;;;;;10416740;28;20026;-55
2022/05/27 22:13:55;;;;;;;2.17;1.17;;;19.60;61.90;;;;;;10417653;28;20029;-56
2022/05/27 22:18:56;;;;;;;2.58;0.80;;;19.60;62.00;;;;;;10411622;28;20041;-56
2022/05/27 22:23:57;;;;;;;3.85;1.05;;;19.60;61.90;;;;;;10416845;28;20064;-56
2022/05/27 22:28:58;;;;;;;1.73;0.98;;;19.60;61.90;;;;;;10415679;28;20071;-57
2022/05/27 22:33:58;;;;;;;2.92;0.98;;;19.60;61.90;;;;;;10416581;28;20128;-57
2022/05/27 22:38:59;;;;;;;3.85;1.42;;;19.60;61.90;;;;;;10416707;28;20530;-57
2022/05/27 22:44:00;;;;;;;2.42;1.05;;;19.60;62.50;;;;;;10416547;28;20065;-56
2022/05/27 22:49:01;;;;;;;2.50;1.17;;;19.60;61.90;;;;;;10416045;28;20116;-57
2022/05/27 22:54:01;;;;;;;2.70;1.00;;;19.60;61.90;;;;;;10415852;28;20108;-56
2022/05/27 22:59:02;;;;;;;2.63;0.85;;;19.60;61.90;;;;;;10415949;28;20624;-56
2022/05/27 23:04:03;;;;;;;2.83;1.08;;;19.50;61.80;;;;;;10415588;28;20037;-56
2022/05/27 23:09:04;;;;;;;1.50;0.88;;;19.50;61.90;;;;;;10415387;28;20116;-57
2022/05/27 23:19:25;;;;;;;2.75;1.60;;;19.50;61.80;;;;;;10421829;28;20140;-56
2022/05/27 23:24:26;;;;;;;3.97;1.70;;;19.50;62.50;;;;;;10416269;28;20118;-57
2022/05/27 23:29:27;;;;;;;1.42;0.70;;;19.50;61.80;;;;;;10414617;28;20445;-57
2022/05/27 23:34:28;;;;;;;3.50;1.52;;;19.50;61.80;;;;;;10414182;28;20041;-56
2022/05/27 23:39:28;;;;;;;1.75;1.00;;;19.50;61.70;;;;;;10414319;28;20068;-56
2022/05/27 23:44:29;;;;;;;2.38;1.13;;;19.50;61.70;;;;;;10414142;28;20474;-56
2022/05/27 23:49:30;;;;;;;2.63;1.40;;;19.50;61.60;;;;;;10412105;28;20033;-56
2022/05/27 23:54:31;;;;;;;3.25;1.27;;;19.50;61.70;;;;;;10413817;28;20095;-56
2022/05/27 23:59:31;;;;;;;2.70;1.38;;;19.50;61.80;;;;;;10413477;28;20032;-56
